Time;durP1;ratioP1;P1;durP2;ratioP2;P2;SDS_P1;SDS_P2;PMS_P1;PMS_P2;Temp;Humidity;BMP_temperature;BMP_pressure;BME280_temperature;BME280_humidity;BME280_pressure;Samples;Min_cycle;Max_cycle;Signal;HPM_P1;HPM_P2
2022/05/29 00:01:44;;;;;;;3.37;1.23;;;9.60;97.70;;;;;;4989864;28;20884;-67
2022/05/29 00:04:10;;;;;;;2.17;1.17;;;9.70;98.10;;;;;;4993981;28;20718;-66
2022/05/29 00:06:40;;;;;;;3.00;1.17;;;9.70;98.10;;;;;;4999224;28;20214;-67
2022/05/29 00:09:09;;;;;;;1.70;0.90;;;9.70;98.10;;;;;;4990247;28;20263;-66
2022/05/29 00:11:35;;;;;;;2.77;0.80;;;9.80;97.90;;;;;;4985114;28;20895;-66
2022/05/29 00:14:00;;;;;;;4.33;1.30;;;9.80;97.90;;;;;;5003281;28;20426;-67
2022/05/29 00:16:30;;;;;;;14.50;1.73;;;9.80;97.90;;;;;;5002958;28;20239;-66
2022/05/29 00:18:56;;;;;;;1.87;0.90;;;9.90;97.80;;;;;;4981807;28;20215;-67
2022/05/29 00:21:22;;;;;;;5.13;1.40;;;9.90;97.80;;;;;;5001773;28;20555;-67
2022/05/29 00:23:51;;;;;;;2.33;1.03;;;9.90;97.90;;;;;;5001665;28;20512;-67
2022/05/29 00:26:18;;;;;;;2.23;1.07;;;9.90;98.40;;;;;;4991240;28;20449;-66
2022/05/29 00:28:45;;;;;;;3.10;1.20;;;9.90;98.30;;;;;;4987310;28;20442;-67
2022/05/29 00:31:12;;;;;;;3.70;1.40;;;9.90;98.50;;;;;;4989636;28;20522;-67
2022/05/29 00:33:38;;;;;;;16.03;1.47;;;10.00;98.00;;;;;;4996900;28;20580;-67
2022/05/29 00:36:04;;;;;;;2.53;1.10;;;9.90;98.10;;;;;;4999892;28;21090;-66
2022/05/29 00:38:38;;;;;;;2.73;1.20;;;9.90;97.80;;;;;;4990038;28;20500;-67
2022/05/29 00:41:26;;;;;;;3.63;1.57;;;9.90;97.80;;;;;;4991502;28;20426;-67
2022/05/29 00:44:04;;;;;;;2.63;1.27;;;9.80;97.90;;;;;;4997099;28;20435;-67
2022/05/29 00:46:34;;;;;;;3.27;1.60;;;9.80;98.00;;;;;;4975890;28;20489;-67
2022/05/29 00:49:03;;;;;;;3.03;1.63;;;9.80;98.20;;;;;;4992572;28;20453;-66
2022/05/29 00:51:29;;;;;;;2.00;0.97;;;9.70;98.10;;;;;;4996258;28;20418;-67
2022/05/29 00:53:56;;;;;;;2.70;1.07;;;9.70;98.30;;;;;;5008377;28;20422;-66
2022/05/29 00:56:22;;;;;;;5.17;1.60;;;9.60;98.30;;;;;;5008598;28;20426;-67
2022/05/29 00:58:48;;;;;;;3.23;1.50;;;9.50;98.90;;;;;;4999462;28;20439;-66
2022/05/29 01:01:13;;;;;;;3.83;1.30;;;9.50;99.30;;;;;;4989978;28;20285;-66
2022/05/29 01:03:39;;;;;;;2.33;1.00;;;9.50;99.60;;;;;;4998460;28;20189;-66
2022/05/29 01:06:05;;;;;;;6.53;1.33;;;9.60;99.80;;;;;;5005242;28;20191;-66
2022/05/29 01:08:36;;;;;;;3.73;1.87;;;9.60;99.60;;;;;;5002984;28;20253;-66
2022/05/29 01:11:28;;;;;;;2.13;1.13;;;9.60;99.60;;;;;;4992056;28;20187;-66
2022/05/29 01:14:08;;;;;;;2.50;1.47;;;9.50;99.10;;;;;;4978486;28;20843;-66
2022/05/29 01:16:44;;;;;;;2.50;1.33;;;9.40;99.40;;;;;;5001605;28;20421;-66
2022/05/29 01:19:28;;;;;;;6.60;2.00;;;9.40;99.80;;;;;;4987787;28;20431;-66
2022/05/29 01:21:55;;;;;;;3.43;1.47;;;9.40;99.90;;;;;;4978087;28;20479;-66
2022/05/29 01:24:35;;;;;;;5.13;1.93;;;9.50;99.90;;;;;;5004647;28;20422;-66
2022/05/29 01:27:09;;;;;;;4.40;1.60;;;9.40;99.90;;;;;;4988356;28;21358;-66
2022/05/29 01:30:01;;;;;;;2.10;1.17;;;9.50;99.90;;;;;;4987526;28;20447;-67
2022/05/29 01:32:38;;;;;;;5.30;1.80;;;9.50;99.90;;;;;;4993925;28;20479;-66
2022/05/29 01:35:14;;;;;;;5.10;1.67;;;9.40;99.90;;;;;;5006958;28;20421;-67
2022/05/29 01:38:06;;;;;;;7.90;2.13;;;9.40;99.90;;;;;;4987898;28;20842;-67
2022/05/29 01:40:49;;;;;;;10.40;1.80;;;9.40;99.60;;;;;;4993485;28;20487;-66
2022/05/29 01:43:26;;;;;;;1.90;1.00;;;9.40;99.20;;;;;;4985367;28;20441;-66
2022/05/29 01:45:57;;;;;;;3.20;1.20;;;9.40;99.40;;;;;;5006632;28;20453;-66
2022/05/29 01:48:50;;;;;;;4.37;1.40;;;9.50;99.50;;;;;;4994136;28;21373;-66
2022/05/29 01:51:20;;;;;;;3.00;1.57;;;9.50;99.20;;;;;;4993040;28;20491;-66
2022/05/29 01:53:59;;;;;;;2.10;1.00;;;9.50;99.80;;;;;;4997137;28;20517;-66
2022/05/29 01:56:29;;;;;;;2.67;1.40;;;9.50;99.70;;;;;;4994259;28;20448;-66
2022/05/29 01:59:00;;;;;;;11.40;1.63;;;9.50;99.70;;;;;;4997446;28;20539;-67
2022/05/29 02:01:35;;;;;;;3.50;1.43;;;9.60;99.70;;;;;;4986620;28;20423;-66
2022/05/29 02:04:04;;;;;;;3.87;1.30;;;9.60;99.80;;;;;;5001005;28;20804;-66
2022/05/29 02:09:35;;;;;;;5.33;1.60;;;9.60;99.90;;;;;;4985029;28;20545;-67
2022/05/29 02:12:04;;;;;;;2.53;1.50;;;9.50;99.90;;;;;;4990316;28;20420;-67
2022/05/29 02:14:34;;;;;;;2.27;1.33;;;9.50;99.90;;;;;;5002452;28;20430;-66
2022/05/29 02:17:17;;;;;;;7.50;1.90;;;9.50;99.90;;;;;;4994372;28;20425;-67
2022/05/29 02:19:50;;;;;;;4.17;1.00;;;9.60;99.90;;;;;;4989712;28;20521;-66
2022/05/29 02:22:28;;;;;;;2.20;1.13;;;9.60;99.90;;;;;;4987255;28;20435;-67
2022/05/29 02:25:12;;;;;;;4.27;1.73;;;9.60;99.90;;;;;;4975274;28;20435;-66
2022/05/29 02:27:58;;;;;;;3.20;1.67;;;9.60;99.40;;;;;;4990807;28;20471;-66
2022/05/29 02:30:32;;;;;;;2.57;1.07;;;9.70;99.10;;;;;;4979210;28;20439;-67
2022/05/29 02:33:07;;;;;;;3.90;1.47;;;9.80;99.00;;;;;;4991788;28;20466;-66
2022/05/29 02:35:32;;;;;;;7.13;1.60;;;9.70;98.20;;;;;;5005085;28;20845;-66
2022/05/29 02:38:12;;;;;;;9.17;1.80;;;9.70;98.10;;;;;;4992197;28;20952;-66
2022/05/29 02:41:07;;;;;;;2.60;1.00;;;9.70;98.00;;;;;;4991210;28;20242;-66
2022/05/29 02:43:57;;;;;;;4.50;1.83;;;9.70;97.70;;;;;;4989045;28;20433;-66
2022/05/29 02:46:23;;;;;;;4.37;1.50;;;9.70;97.80;;;;;;4996828;28;20442;-66
2022/05/29 02:48:59;;;;;;;4.80;1.40;;;9.70;97.60;;;;;;4997006;28;20450;-66
2022/05/29 02:52:15;;;;;;;2.10;1.00;;;9.70;97.30;;;;;;4996192;28;20187;-65
2022/05/29 02:54:42;;;;;;;12.73;1.00;;;9.70;97.10;;;;;;4949207;29;20783;-67
2022/05/29 02:57:09;;;;;;;3.70;1.80;;;9.80;96.90;;;;;;4949007;29;21004;-66
2022/05/29 02:59:42;;;;;;;3.37;1.20;;;9.80;96.80;;;;;;4954506;28;20454;-66
2022/05/29 03:02:45;;;;;;;5.20;0.97;;;9.80;96.50;;;;;;5000424;28;20541;-66
2022/05/29 03:05:52;;;;;;;1.60;0.70;;;9.90;96.70;;;;;;4987586;28;21351;-66
2022/05/29 03:08:43;;;;;;;7.30;1.30;;;9.90;96.40;;;;;;5007406;28;20949;-66
2022/05/29 03:11:36;;;;;;;6.50;1.70;;;9.90;96.50;;;;;;4992653;28;20470;-66
2022/05/29 03:14:08;;;;;;;2.87;1.33;;;9.90;96.20;;;;;;4979800;28;20461;-66
2022/05/29 03:16:33;;;;;;;5.10;1.37;;;9.90;96.60;;;;;;4993129;28;20565;-66
2022/05/29 03:19:10;;;;;;;1.70;0.97;;;9.80;97.90;;;;;;5002490;28;20558;-66
2022/05/29 03:22:00;;;;;;;3.07;1.33;;;9.80;97.60;;;;;;5007257;28;20186;-66
2022/05/29 03:24:45;;;;;;;2.87;1.23;;;9.70;98.60;;;;;;5006955;28;20495;-66
2022/05/29 03:27:31;;;;;;;4.17;1.70;;;9.60;99.90;;;;;;5000197;28;20457;-65
2022/05/29 03:30:07;;;;;;;4.80;1.53;;;9.50;99.90;;;;;;4991872;28;20521;-66
2022/05/29 03:32:34;;;;;;;1.80;0.93;;;9.40;99.90;;;;;;4992488;28;20840;-66
2022/05/29 03:35:22;;;;;;;4.53;1.97;;;9.30;99.90;;;;;;4996296;28;21022;-65
2022/05/29 03:37:48;;;;;;;2.77;1.17;;;9.30;99.90;;;;;;4989379;28;20466;-65
2022/05/29 03:40:14;;;;;;;5.63;1.70;;;9.20;99.90;;;;;;5003430;28;21117;-67
2022/05/29 03:42:40;;;;;;;4.00;1.50;;;9.20;99.90;;;;;;5001919;28;20428;-66
2022/05/29 03:45:08;;;;;;;7.00;1.93;;;9.20;99.90;;;;;;5009651;28;20513;-66
2022/05/29 03:47:35;;;;;;;4.77;1.57;;;9.20;99.90;;;;;;4992563;28;21075;-66
2022/05/29 03:50:01;;;;;;;5.60;1.50;;;9.20;99.90;;;;;;4987395;28;20521;-66
2022/05/29 03:52:26;;;;;;;6.37;1.67;;;9.10;99.90;;;;;;4989911;28;20927;-67
2022/05/29 03:54:52;;;;;;;6.80;1.60;;;9.10;99.90;;;;;;5009614;28;20179;-66
2022/05/29 03:57:18;;;;;;;4.90;1.43;;;9.00;99.90;;;;;;4994480;28;20936;-66
2022/05/29 03:59:44;;;;;;;3.63;1.70;;;9.00;99.90;;;;;;4984018;28;20518;-65
2022/05/29 04:02:09;;;;;;;3.07;1.37;;;9.00;99.90;;;;;;4986076;28;20214;-66
2022/05/29 04:04:35;;;;;;;8.40;1.63;;;8.90;99.90;;;;;;4990257;28;20273;-66
2022/05/29 04:07:01;;;;;;;7.73;2.00;;;8.90;99.90;;;;;;4979487;28;20219;-66
2022/05/29 04:12:13;;;;;;;2.33;1.30;;;8.90;99.90;;;;;;4993749;28;20323;-66
2022/05/29 04:14:41;;;;;;;5.10;1.33;;;8.80;99.90;;;;;;5009676;28;20485;-66
2022/05/29 04:17:09;;;;;;;2.90;1.57;;;8.80;99.90;;;;;;4995117;28;20485;-66
2022/05/29 04:19:34;;;;;;;3.73;1.33;;;8.80;99.90;;;;;;4994616;28;20501;-67
2022/05/29 04:22:01;;;;;;;4.10;1.90;;;8.90;99.90;;;;;;4988958;28;20427;-66
2022/05/29 04:24:26;;;;;;;9.13;1.47;;;9.00;99.90;;;;;;5007866;28;20226;-66
2022/05/29 04:26:52;;;;;;;10.70;1.50;;;9.10;99.90;;;;;;4999309;28;20556;-66
2022/05/29 04:29:19;;;;;;;3.50;1.67;;;9.00;99.90;;;;;;4992424;28;20439;-66
2022/05/29 04:34:30;;;;;;;5.60;1.50;;;8.90;99.90;;;;;;5007600;28;21331;-66
2022/05/29 04:36:55;;;;;;;1.37;0.83;;;8.90;99.90;;;;;;4994965;28;20825;-66
2022/05/29 04:39:21;;;;;;;6.40;1.17;;;8.90;99.90;;;;;;4984249;28;21105;-66
2022/05/29 04:41:47;;;;;;;3.93;1.73;;;8.90;99.90;;;;;;4996761;28;20183;-66
2022/05/29 04:44:13;;;;;;;3.40;1.40;;;8.90;99.90;;;;;;4995147;28;20198;-66
2022/05/29 04:46:38;;;;;;;2.67;1.10;;;9.00;99.90;;;;;;4990608;28;20457;-66
2022/05/29 04:49:04;;;;;;;11.17;1.07;;;9.10;99.90;;;;;;5000501;28;20889;-66
2022/05/29 04:51:29;;;;;;;4.50;1.60;;;9.20;99.90;;;;;;5008576;28;20314;-66
2022/05/29 04:53:55;;;;;;;3.37;1.60;;;9.30;99.60;;;;;;4994438;28;20790;-67
2022/05/29 04:56:21;;;;;;;2.63;1.33;;;9.40;99.20;;;;;;5004892;28;20184;-65
2022/05/29 04:58:46;;;;;;;4.37;1.10;;;9.30;99.50;;;;;;4992329;28;20196;-66
2022/05/29 05:01:12;;;;;;;2.43;1.07;;;9.40;99.60;;;;;;4996682;28;20294;-65
2022/05/29 05:03:38;;;;;;;2.40;1.50;;;9.50;99.30;;;;;;4998239;28;20214;-66
2022/05/29 05:06:03;;;;;;;6.30;1.40;;;9.60;99.50;;;;;;5006999;28;20184;-66
2022/05/29 05:08:29;;;;;;;2.50;1.17;;;9.60;99.20;;;;;;4982486;28;20270;-66
2022/05/29 05:10:55;;;;;;;4.70;1.27;;;9.60;98.60;;;;;;4990077;28;20236;-66
2022/05/29 05:13:21;;;;;;;2.00;1.03;;;9.70;98.40;;;;;;4988654;28;20184;-66
2022/05/29 05:15:47;;;;;;;4.07;1.10;;;9.80;98.40;;;;;;5002053;28;20418;-66
2022/05/29 05:18:13;;;;;;;3.70;1.20;;;9.80;98.20;;;;;;4987908;28;20438;-66
2022/05/29 05:20:38;;;;;;;17.73;1.37;;;9.90;97.80;;;;;;4988938;28;20279;-66
2022/05/29 05:23:04;;;;;;;5.23;1.47;;;10.00;97.20;;;;;;4991011;28;20385;-67
2022/05/29 05:25:30;;;;;;;3.50;1.40;;;10.00;97.00;;;;;;4999373;28;20193;-67
2022/05/29 05:27:55;;;;;;;2.07;1.10;;;10.10;97.40;;;;;;4989732;28;20285;-66
2022/05/29 05:30:21;;;;;;;4.50;1.70;;;10.10;96.50;;;;;;4988507;28;20180;-67
2022/05/29 05:32:47;;;;;;;11.10;1.37;;;10.10;97.30;;;;;;5004943;28;20620;-66
2022/05/29 05:35:13;;;;;;;4.03;1.43;;;10.40;96.70;;;;;;4998400;28;20183;-67
2022/05/29 05:37:39;;;;;;;7.27;1.67;;;10.30;96.70;;;;;;5005048;28;20697;-67
2022/05/29 05:40:09;;;;;;;1.97;1.00;;;10.40;96.50;;;;;;4992420;28;20193;-66
2022/05/29 05:42:35;;;;;;;16.93;1.00;;;10.50;95.60;;;;;;5004925;28;20493;-67
2022/05/29 05:45:01;;;;;;;5.90;1.50;;;10.60;95.70;;;;;;5002035;28;20451;-67
2022/05/29 05:47:26;;;;;;;3.27;1.30;;;10.60;96.10;;;;;;4999950;28;20465;-66
2022/05/29 05:49:52;;;;;;;3.17;1.43;;;10.60;97.00;;;;;;4990042;28;20470;-66
2022/05/29 05:52:18;;;;;;;5.20;1.13;;;10.40;97.10;;;;;;4999890;28;20187;-66
2022/05/29 05:54:45;;;;;;;3.30;1.27;;;10.40;96.60;;;;;;5007777;28;20325;-67
2022/05/29 05:57:11;;;;;;;5.83;1.80;;;10.40;96.30;;;;;;5007900;28;20421;-67
2022/05/29 05:59:39;;;;;;;3.10;1.10;;;10.20;96.60;;;;;;4990259;28;20454;-66
2022/05/29 06:02:09;;;;;;;9.17;1.43;;;10.10;97.10;;;;;;4989145;28;20848;-67
2022/05/29 06:04:36;;;;;;;2.53;1.17;;;10.00;97.10;;;;;;4991046;28;20430;-65
2022/05/29 06:07:03;;;;;;;2.03;1.00;;;9.90;97.80;;;;;;5006692;28;20585;-65
2022/05/29 06:09:29;;;;;;;2.23;0.97;;;9.90;98.20;;;;;;4995359;28;20752;-66
2022/05/29 06:11:55;;;;;;;7.80;2.03;;;10.00;97.50;;;;;;4993131;28;20474;-66
2022/05/29 06:14:21;;;;;;;6.03;1.97;;;9.90;98.00;;;;;;5007990;28;20465;-66
2022/05/29 06:16:47;;;;;;;2.67;1.30;;;9.80;99.90;;;;;;4998978;28;20415;-65
2022/05/29 06:19:13;;;;;;;5.50;1.40;;;9.80;99.90;;;;;;4990183;28;20179;-65
2022/05/29 06:21:38;;;;;;;5.10;1.60;;;9.70;99.90;;;;;;4994031;28;20903;-65
2022/05/29 06:24:05;;;;;;;4.33;1.70;;;9.60;99.90;;;;;;4997844;28;20590;-65
2022/05/29 06:26:31;;;;;;;5.00;1.90;;;9.60;99.90;;;;;;4994319;28;20641;-65
2022/05/29 06:28:57;;;;;;;2.97;1.37;;;9.50;99.90;;;;;;5002313;28;20513;-65
2022/05/29 06:31:22;;;;;;;2.20;1.50;;;9.50;99.90;;;;;;4992725;28;20408;-65
2022/05/29 06:33:48;;;;;;;7.93;2.03;;;9.50;99.90;;;;;;5009430;28;20191;-65
2022/05/29 06:36:20;;;;;;;4.17;1.37;;;9.50;99.90;;;;;;5001947;28;20254;-65
2022/05/29 06:38:46;;;;;;;2.80;1.40;;;9.60;99.90;;;;;;4998895;28;20621;-65
2022/05/29 06:41:15;;;;;;;3.03;1.67;;;9.60;99.90;;;;;;4986228;28;20474;-65
2022/05/29 06:43:41;;;;;;;2.50;1.30;;;9.70;99.90;;;;;;5006881;28;20448;-65
2022/05/29 06:46:08;;;;;;;5.77;1.47;;;9.80;99.90;;;;;;5008386;28;20957;-65
2022/05/29 06:48:37;;;;;;;8.00;1.63;;;9.90;99.90;;;;;;4984045;28;20482;-66
2022/05/29 06:51:04;;;;;;;3.60;1.33;;;9.90;99.90;;;;;;4981281;28;20539;-65
2022/05/29 06:53:30;;;;;;;2.63;1.03;;;10.00;99.90;;;;;;4989921;28;20444;-65
2022/05/29 06:55:56;;;;;;;3.50;1.40;;;10.00;99.90;;;;;;5003767;28;20541;-66
2022/05/29 06:58:22;;;;;;;3.70;1.43;;;10.10;99.90;;;;;;4984601;28;20270;-65
2022/05/29 07:09:04;;;;;;;5.93;1.37;;;10.40;99.90;;;;;;4984288;28;20426;-65
2022/05/29 07:11:35;;;;;;;3.83;1.83;;;10.50;99.90;;;;;;4982843;28;20802;-66
2022/05/29 07:14:04;;;;;;;6.23;1.60;;;10.50;99.90;;;;;;4982530;28;20438;-65
2022/05/29 07:16:31;;;;;;;2.07;1.10;;;10.60;99.90;;;;;;4983236;28;20422;-65
2022/05/29 07:18:56;;;;;;;2.93;1.63;;;10.80;99.90;;;;;;4986635;28;20454;-66
2022/05/29 07:21:22;;;;;;;2.37;1.37;;;11.00;98.30;;;;;;4981167;28;20790;-65
2022/05/29 07:23:49;;;;;;;2.87;1.00;;;11.20;98.30;;;;;;5001790;28;20183;-65
2022/05/29 07:26:16;;;;;;;1.93;1.00;;;11.30;98.40;;;;;;5007402;28;20275;-65
2022/05/29 07:28:42;;;;;;;3.63;1.80;;;11.50;97.70;;;;;;5003230;28;20978;-66
2022/05/29 07:31:07;;;;;;;5.30;1.50;;;11.80;96.50;;;;;;4990501;28;20553;-65
2022/05/29 07:33:33;;;;;;;5.00;1.50;;;11.90;95.10;;;;;;4989049;28;20191;-65
2022/05/29 07:36:00;;;;;;;1.93;0.93;;;12.00;96.40;;;;;;4993174;28;20184;-66
2022/05/29 07:38:26;;;;;;;3.30;1.37;;;12.50;94.40;;;;;;5003881;28;20225;-65
2022/05/29 07:40:53;;;;;;;3.63;1.40;;;13.00;92.60;;;;;;4992265;28;20438;-66
2022/05/29 07:43:19;;;;;;;2.50;1.00;;;13.60;92.10;;;;;;5003264;28;20426;-66
2022/05/29 07:45:48;;;;;;;2.37;1.27;;;14.60;91.20;;;;;;4999297;28;20926;-66
2022/05/29 07:48:15;;;;;;;3.93;1.00;;;16.30;85.00;;;;;;4992834;28;20457;-66
2022/05/29 07:50:41;;;;;;;1.70;0.80;;;18.00;77.70;;;;;;4979124;28;20477;-67
2022/05/29 07:53:07;;;;;;;3.00;1.30;;;18.10;75.60;;;;;;4989335;28;20423;-66
2022/05/29 07:55:32;;;;;;;6.27;1.20;;;17.10;79.40;;;;;;4989703;28;20990;-66
2022/05/29 07:57:58;;;;;;;3.17;1.40;;;16.00;82.40;;;;;;4993329;28;20286;-65
2022/05/29 08:00:24;;;;;;;5.87;1.47;;;15.00;83.10;;;;;;4983389;28;20212;-66
2022/05/29 08:02:49;;;;;;;3.93;1.00;;;14.10;85.60;;;;;;5001395;28;20202;-66
2022/05/29 08:05:18;;;;;;;6.87;1.10;;;13.30;89.20;;;;;;4995838;28;20542;-65
2022/05/29 08:07:46;;;;;;;5.27;1.67;;;12.70;90.00;;;;;;4997867;28;20226;-65
2022/05/29 08:10:14;;;;;;;2.67;1.07;;;12.10;92.80;;;;;;4991280;28;20439;-65
2022/05/29 08:12:40;;;;;;;2.80;1.00;;;11.70;94.30;;;;;;4996866;28;20440;-66
2022/05/29 08:15:06;;;;;;;4.73;1.60;;;11.40;95.00;;;;;;4982877;28;20883;-65
2022/05/29 08:17:32;;;;;;;8.20;1.43;;;11.30;96.50;;;;;;4987897;28;20200;-66
2022/05/29 08:19:58;;;;;;;4.47;1.27;;;11.20;98.60;;;;;;4990191;28;20439;-67
2022/05/29 08:22:24;;;;;;;2.40;1.20;;;10.80;99.50;;;;;;4994521;28;20180;-66
2022/05/29 08:30:42;;;;;;;3.10;1.60;;;10.40;99.90;;;;;;4979062;28;20768;-65
2022/05/29 08:33:15;;;;;;;12.40;2.60;;;10.40;99.90;;;;;;4983016;28;20422;-66
2022/05/29 08:35:44;;;;;;;4.23;1.80;;;10.40;99.90;;;;;;5002700;28;20765;-65
2022/05/29 08:38:11;;;;;;;3.90;1.60;;;10.40;99.90;;;;;;4994271;28;20519;-65
2022/05/29 08:40:44;;;;;;;6.07;2.10;;;10.40;99.90;;;;;;5005123;28;20418;-65
2022/05/29 08:43:13;;;;;;;4.50;1.93;;;10.50;99.90;;;;;;4997180;28;20458;-66
2022/05/29 08:45:40;;;;;;;1.53;0.80;;;10.50;99.50;;;;;;4984947;28;20447;-65
2022/05/29 08:48:06;;;;;;;3.83;1.50;;;10.60;99.00;;;;;;4988810;28;20551;-65
2022/05/29 08:50:47;;;;;;;5.57;1.23;;;10.60;98.80;;;;;;4998532;28;20460;-66
2022/05/29 08:53:28;;;;;;;4.07;1.37;;;10.80;98.30;;;;;;5005809;28;20414;-66
2022/05/29 08:56:02;;;;;;;3.00;1.10;;;11.10;98.00;;;;;;5005012;28;20525;-65
2022/05/29 08:58:54;;;;;;;2.70;0.83;;;11.10;97.50;;;;;;4997273;28;20939;-65
2022/05/29 09:01:32;;;;;;;2.67;1.03;;;11.10;96.90;;;;;;4990269;28;20457;-65
2022/05/29 09:04:01;;;;;;;4.93;1.60;;;11.10;96.70;;;;;;4987942;28;20444;-66
2022/05/29 09:06:44;;;;;;;1.93;1.13;;;11.00;95.60;;;;;;4999817;28;20497;-65
2022/05/29 09:09:38;;;;;;;6.30;1.40;;;11.00;95.90;;;;;;4990607;28;20419;-65
2022/05/29 09:12:21;;;;;;;2.70;0.80;;;11.10;95.40;;;;;;4994751;28;20915;-65
2022/05/29 09:14:50;;;;;;;4.53;0.93;;;11.10;96.20;;;;;;4985067;28;20494;-65
2022/05/29 09:17:35;;;;;;;6.00;1.57;;;11.00;96.00;;;;;;4983615;28;20531;-65
2022/05/29 09:20:13;;;;;;;2.13;1.00;;;10.80;96.80;;;;;;4987091;28;20438;-65
2022/05/29 09:22:44;;;;;;;1.97;1.03;;;10.90;98.20;;;;;;4988157;28;20528;-66
2022/05/29 09:25:18;;;;;;;3.40;1.40;;;11.10;97.60;;;;;;4989942;28;20944;-66
2022/05/29 09:27:49;;;;;;;3.50;0.70;;;11.20;97.20;;;;;;4989212;28;20457;-65
2022/05/29 09:30:16;;;;;;;2.30;1.00;;;11.30;94.80;;;;;;4994524;28;20542;-65
2022/05/29 09:32:56;;;;;;;2.53;0.80;;;11.30;93.80;;;;;;4983260;28;20423;-65
2022/05/29 09:35:35;;;;;;;6.50;1.20;;;11.40;94.70;;;;;;4975967;28;20513;-65
2022/05/29 09:38:12;;;;;;;5.47;1.53;;;11.70;94.20;;;;;;4994110;28;20426;-65
2022/05/29 09:40:49;;;;;;;2.13;0.97;;;12.10;91.40;;;;;;5003604;28;20422;-66
2022/05/29 09:43:19;;;;;;;3.53;0.83;;;12.20;91.30;;;;;;5004168;28;20426;-65
2022/05/29 09:45:45;;;;;;;2.70;0.83;;;12.20;90.50;;;;;;4997538;28;20454;-66
2022/05/29 09:51:27;;;;;;;1.43;0.80;;;12.30;91.20;;;;;;4993368;28;20194;-65
2022/05/29 09:53:57;;;;;;;5.67;0.80;;;12.50;90.40;;;;;;5004861;28;20421;-65
2022/05/29 09:56:34;;;;;;;5.47;1.00;;;12.90;89.50;;;;;;4994139;28;20441;-65
2022/05/29 09:59:11;;;;;;;2.63;1.10;;;13.10;89.80;;;;;;4998123;28;20489;-65
2022/05/29 10:01:42;;;;;;;7.07;1.27;;;13.10;88.20;;;;;;4984096;28;20430;-66
2022/05/29 10:04:40;;;;;;;2.17;0.83;;;13.00;87.50;;;;;;5005269;28;20440;-65
2022/05/29 10:07:27;;;;;;;3.40;0.93;;;12.50;90.10;;;;;;5005670;28;20592;-65
2022/05/29 10:09:57;;;;;;;7.70;1.03;;;12.50;91.90;;;;;;4995821;28;20437;-66
2022/05/29 10:12:39;;;;;;;4.53;1.47;;;12.30;92.40;;;;;;4997337;28;20425;-65
2022/05/29 10:15:13;;;;;;;4.70;1.00;;;12.20;93.20;;;;;;5006747;28;20505;-66
2022/05/29 10:17:40;;;;;;;5.43;0.87;;;12.50;93.70;;;;;;4998251;28;20441;-66
2022/05/29 10:20:24;;;;;;;2.03;0.93;;;12.70;92.80;;;;;;4992009;28;20442;-65
2022/05/29 10:22:53;;;;;;;3.43;1.83;;;12.80;91.80;;;;;;4993534;28;20899;-66
2022/05/29 10:25:27;;;;;;;2.70;0.80;;;12.80;91.30;;;;;;4987624;28;20435;-66
2022/05/29 10:27:57;;;;;;;5.33;1.17;;;12.90;90.90;;;;;;4991293;28;20466;-65
2022/05/29 10:30:48;;;;;;;2.37;1.03;;;12.80;90.10;;;;;;4974486;28;20517;-66
2022/05/29 10:33:27;;;;;;;1.60;0.80;;;12.60;90.30;;;;;;4999568;28;20423;-66
2022/05/29 10:35:58;;;;;;;2.37;1.00;;;12.60;90.10;;;;;;4998877;28;20948;-65
2022/05/29 10:38:29;;;;;;;2.13;0.80;;;12.70;90.40;;;;;;5005228;28;20525;-66
2022/05/29 10:40:59;;;;;;;3.37;1.20;;;12.60;90.40;;;;;;4988548;28;20446;-65
2022/05/29 10:43:40;;;;;;;2.60;0.73;;;12.60;90.20;;;;;;4993417;28;20429;-65
2022/05/29 10:46:46;;;;;;;1.53;0.67;;;12.50;89.60;;;;;;5006046;28;20446;-66
2022/05/29 10:49:45;;;;;;;2.17;0.60;;;12.30;90.00;;;;;;4988606;28;20446;-65
2022/05/29 10:52:33;;;;;;;2.33;0.70;;;12.20;90.20;;;;;;5005443;28;20433;-65
2022/05/29 10:55:10;;;;;;;2.57;1.00;;;12.20;90.40;;;;;;5009587;28;20902;-65
2022/05/29 10:57:44;;;;;;;1.30;0.60;;;12.70;90.40;;;;;;5000084;28;20426;-65
2022/05/29 11:00:29;;;;;;;5.73;0.60;;;12.70;89.00;;;;;;4994800;28;20430;-65
2022/05/29 11:03:28;;;;;;;5.33;1.20;;;12.80;88.00;;;;;;4996476;28;20513;-65
2022/05/29 11:06:22;;;;;;;1.20;0.50;;;13.10;89.40;;;;;;4999426;28;20461;-65
2022/05/29 11:09:00;;;;;;;1.40;0.63;;;13.20;86.60;;;;;;4999006;28;20483;-65
2022/05/29 11:11:41;;;;;;;2.03;0.90;;;13.50;88.50;;;;;;4984368;28;20433;-65
2022/05/29 11:14:25;;;;;;;1.80;1.07;;;13.40;85.10;;;;;;4972354;28;20730;-65
2022/05/29 11:16:56;;;;;;;1.70;0.60;;;13.30;84.90;;;;;;4991664;28;20429;-65
2022/05/29 11:19:59;;;;;;;1.30;0.50;;;13.00;86.80;;;;;;4998245;28;20522;-65
2022/05/29 11:22:39;;;;;;;2.03;0.50;;;12.60;85.20;;;;;;4988343;28;20445;-65
2022/05/29 11:25:15;;;;;;;2.00;0.90;;;12.50;88.10;;;;;;4994122;28;20873;-66
2022/05/29 11:28:07;;;;;;;2.43;0.77;;;12.70;88.40;;;;;;5007604;28;20473;-66
2022/05/29 11:30:44;;;;;;;1.73;0.60;;;13.10;86.60;;;;;;5007569;28;20541;-65
2022/05/29 11:33:46;;;;;;;1.50;0.80;;;13.30;84.70;;;;;;4988650;28;20603;-65
2022/05/29 11:36:26;;;;;;;1.63;0.67;;;13.50;84.80;;;;;;5003336;28;20428;-66
2022/05/29 11:39:00;;;;;;;2.43;0.50;;;13.70;81.70;;;;;;5008415;28;20471;-67
2022/05/29 11:42:10;;;;;;;1.80;1.00;;;13.90;81.90;;;;;;4999934;28;20434;-66
2022/05/29 11:44:44;;;;;;;1.70;0.60;;;14.00;80.70;;;;;;4991632;28;20438;-65
2022/05/29 11:53:10;;;;;;;1.37;0.57;;;13.60;80.00;;;;;;4997388;28;20437;-66
2022/05/29 11:55:40;;;;;;;2.10;0.90;;;13.50;79.80;;;;;;5008382;28;20418;-66
2022/05/29 11:58:21;;;;;;;1.30;0.60;;;13.40;81.20;;;;;;5008253;28;21059;-66
2022/05/29 12:01:06;;;;;;;1.80;0.70;;;13.40;79.70;;;;;;4997134;28;20425;-66
2022/05/29 12:03:36;;;;;;;1.40;0.67;;;13.60;80.60;;;;;;4988155;28;20423;-66
2022/05/29 12:06:19;;;;;;;1.67;0.80;;;14.00;81.70;;;;;;4982507;28;20438;-66
2022/05/29 12:08:49;;;;;;;1.40;0.60;;;14.60;77.70;;;;;;4985136;28;20557;-66
2022/05/29 12:11:23;;;;;;;1.50;0.70;;;14.80;76.20;;;;;;4998363;28;20505;-66
2022/05/29 12:14:33;;;;;;;1.80;0.60;;;14.90;76.30;;;;;;4981461;28;20453;-66
2022/05/29 12:17:11;;;;;;;1.57;0.60;;;14.90;77.90;;;;;;4938071;29;20434;-66
2022/05/29 12:19:44;;;;;;;1.87;0.70;;;15.00;75.70;;;;;;4988345;28;20437;-66
2022/05/29 12:22:12;;;;;;;5.97;0.60;;;15.20;75.50;;;;;;4992024;28;20517;-66
2022/05/29 12:24:44;;;;;;;3.03;0.80;;;15.20;76.10;;;;;;4983311;28;20485;-66
2022/05/29 12:27:13;;;;;;;1.60;0.70;;;15.40;74.50;;;;;;4987088;28;20474;-65
2022/05/29 12:29:41;;;;;;;3.93;0.70;;;15.40;72.30;;;;;;5001413;28;20513;-66
2022/05/29 12:32:25;;;;;;;1.43;0.63;;;15.30;76.00;;;;;;4985281;28;20432;-66
2022/05/29 12:34:59;;;;;;;3.97;0.60;;;15.20;75.20;;;;;;4995567;28;20437;-66
2022/05/29 12:37:34;;;;;;;1.33;0.57;;;15.40;76.10;;;;;;4992424;28;20478;-66
2022/05/29 12:40:17;;;;;;;1.43;0.60;;;15.50;74.00;;;;;;4982465;28;20441;-66
2022/05/29 12:43:20;;;;;;;2.93;0.80;;;15.10;73.80;;;;;;4994252;28;20457;-66
2022/05/29 12:45:52;;;;;;;2.23;0.70;;;14.40;75.30;;;;;;4984090;28;20442;-66
2022/05/29 12:48:38;;;;;;;2.07;0.70;;;14.30;75.40;;;;;;5001494;28;20528;-66
2022/05/29 12:51:22;;;;;;;1.40;0.70;;;14.50;76.70;;;;;;4983254;28;20916;-66
2022/05/29 12:53:47;;;;;;;1.60;0.60;;;14.80;77.10;;;;;;4990473;28;20435;-66
2022/05/29 12:56:45;;;;;;;2.07;0.97;;;14.80;76.50;;;;;;4982468;28;20938;-66
2022/05/29 12:59:45;;;;;;;3.57;0.80;;;14.90;76.10;;;;;;5001069;28;20246;-66
2022/05/29 13:02:22;;;;;;;1.30;0.50;;;14.80;76.60;;;;;;4969492;28;20454;-65
2022/05/29 13:04:56;;;;;;;2.03;0.70;;;14.70;75.30;;;;;;4993534;28;20423;-66
2022/05/29 13:07:27;;;;;;;1.63;0.60;;;14.40;77.30;;;;;;4985184;28;20467;-66
2022/05/29 13:10:06;;;;;;;2.17;0.93;;;14.40;76.40;;;;;;4985336;28;20423;-66
2022/05/29 13:13:01;;;;;;;2.63;0.80;;;14.50;78.00;;;;;;4980560;28;20430;-66
2022/05/29 13:15:28;;;;;;;2.57;1.00;;;15.20;77.40;;;;;;4991139;28;20463;-66
2022/05/29 13:21:12;;;;;;;6.90;1.50;;;14.70;84.40;;;;;;4984430;28;20450;-66
2022/05/29 13:23:53;;;;;;;3.00;1.00;;;14.70;84.90;;;;;;4997378;28;20433;-66
2022/05/29 13:26:27;;;;;;;2.77;1.37;;;14.90;84.00;;;;;;4989680;28;20431;-66
2022/05/29 13:29:08;;;;;;;2.73;0.90;;;14.90;84.30;;;;;;4982278;28;20601;-66
2022/05/29 13:32:12;;;;;;;1.60;0.80;;;14.90;81.90;;;;;;4984529;28;20433;-66
2022/05/29 13:34:51;;;;;;;1.83;0.80;;;14.60;84.00;;;;;;5001633;28;20433;-66
2022/05/29 13:37:32;;;;;;;2.90;1.03;;;14.50;81.60;;;;;;4999111;28;21082;-66
2022/05/29 13:40:21;;;;;;;1.83;0.90;;;14.10;82.50;;;;;;4992229;28;20438;-66
2022/05/29 13:42:55;;;;;;;1.80;1.00;;;14.10;85.80;;;;;;4985937;28;20463;-66
2022/05/29 13:45:23;;;;;;;1.73;0.80;;;14.30;87.20;;;;;;4981004;28;20507;-66
2022/05/29 13:48:16;;;;;;;2.27;1.10;;;14.20;84.80;;;;;;4976461;28;20945;-66
2022/05/29 13:50:54;;;;;;;1.83;0.77;;;13.80;84.30;;;;;;4991108;28;21268;-66
2022/05/29 13:53:29;;;;;;;4.13;1.00;;;13.40;85.20;;;;;;4981721;28;20848;-66
2022/05/29 13:55:57;;;;;;;3.87;1.27;;;13.80;84.70;;;;;;4976942;28;20438;-69
2022/05/29 14:04:18;;;;;;;1.60;0.80;;;15.50;77.90;;;;;;4999651;28;21277;-65